Aqualoyalty — A8ZC6 — position and weather

sailwx.info

Track history (hours):
 
Tides and Currents Weather Stations Pressure Air Temp Water Temp Dewpoint Dewpoint Depression Visibility Wind Speed Wind Dir Waves Ship Positions

Aqualoyalty

Last reported at 2018-Apr-18 19:43 UTC. Time now 2018-Apr-20 05:13 UTC.
Position N 33°06' W 120°45'.

Length 249 m; draft 8.4 m.

Type: Tanker. MMSI: 636015177.

Date/timePositionNaut miles runAvg speedWind from/ knotsBaromVisibWave heightAir tempDewpointWater temp
2018-Apr-18 19:43N 33°06' W 120°45'2413.6
2018-Apr-18 17:58N 33°23' W 121°05'613.1
2018-Apr-18 17:29N 33°28' W 121°10'713.4
2018-Apr-18 16:59N 33°32' W 121°16'713.8
2018-Apr-18 16:30N 33°36' W 121°23'611.5
2018-Apr-18 16:00N 33°41' W 121°25'713.6
2018-Apr-18 15:30N 33°46' W 121°30'713.5
2018-Apr-18 15:00N 33°51' W 121°36'713.1
2018-Apr-18 14:28N 33°57' W 121°41'613.6
2018-Apr-18 14:00N 34°03' W 121°44'713.7
2018-Apr-18 13:30N 34°09' W 121°47'913.5
2018-Apr-18 12:52N 34°17' W 121°50'813.7
2018-Apr-18 12:19N 34°25' W 121°53'513.7
2018-Apr-18 11:57N 34°29' W 121°55'10113.5
2018-Apr-18 04:26N 36°05' W 122°37'2813.9
2018-Apr-18 02:28N 36°31' W 122°48'1914.2
2018-Apr-18 01:05N 36°49' W 122°56'513.9
2018-Apr-18 00:45N 36°53' W 122°58'413.9
2018-Apr-18 00:29N 36°57' W 122°60'714.1
2018-Apr-18 00:00N 37°03' W 123°03'713.9
2018-Apr-17 23:30N 37°10' W 123°06'713.8
2018-Apr-17 22:58N 37°17' W 123°08'713.9
2018-Apr-17 22:28N 37°24' W 123°10'613.6
2018-Apr-17 22:00N 37°30' W 123°11'612.4
2018-Apr-17 21:30N 37°34' W 123°04'612.6
2018-Apr-17 21:00N 37°37' W 122°58'612.6
2018-Apr-17 20:30N 37°41' W 122°51'611.8
2018-Apr-17 20:00N 37°43' W 122°45'4 8.5
2018-Apr-17 19:30N 37°46' W 122°40'611.0
2018-Apr-17 19:00N 37°47' W 122°34'611.0
2018-Apr-17 18:30N 37°50' W 122°27'4 9.0
2018-Apr-17 18:00N 37°54' W 122°27'612.5
2018-Apr-17 17:30N 38°00' W 122°25'713.2
2018-Apr-17 17:00N 38°04' W 122°17'713.1
2018-Apr-17 16:29N 38°02' W 122°09'1 1.4
2018-Apr-17 15:55N 38°02' W 122°08'  
2018-Apr-15 05:07N 38°02' W 122°08'0 0.0
2018-Apr-15 04:55N 38°02' W 122°08'0 0.0
2018-Apr-15 04:25N 38°02' W 122°08'0 0.0
2018-Apr-15 03:55N 38°02' W 122°08'0 0.0
2018-Apr-15 03:25N 38°02' W 122°08'0 0.0
2018-Apr-15 02:43N 38°02' W 122°08'0 0.0
2018-Apr-15 02:25N 38°02' W 122°08'0 0.0
2018-Apr-14 20:37N 38°02' W 122°08'0 0.0
2018-Apr-14 20:19N 38°02' W 122°08'0 0.0
2018-Apr-14 19:55N 38°02' W 122°08'0 0.2
2018-Apr-14 19:30N 38°02' W 122°08'2 4.3
2018-Apr-14 18:58N 38°03' W 122°11'4 9.5
2018-Apr-14 18:30N 38°04' W 122°16'510.5
2018-Apr-14 18:00N 38°02' W 122°22'611.4
2018-Apr-14 17:30N 37°57' W 122°27'510.7
2018-Apr-14 17:00N 37°52' W 122°25'5 9.2
2018-Apr-14 16:30N 37°48' W 122°23'4 6.7
2018-Apr-14 15:59N 37°45' W 122°21'0 0.1
2018-Apr-14 15:29N 37°45' W 122°21'0 0.0
2018-Apr-14 14:59N 37°45' W 122°21'0 0.1
2018-Apr-14 14:29N 37°45' W 122°20'0 0.0
2018-Apr-14 13:59N 37°45' W 122°20'0 0.4
2018-Apr-14 13:29N 37°45' W 122°21'0 0.1
2018-Apr-14 12:59N 37°45' W 122°21'0 0.1
2018-Apr-14 12:29N 37°45' W 122°21'0 0.0
2018-Apr-14 11:59N 37°45' W 122°21'0 0.0
2018-Apr-14 11:29N 37°45' W 122°21'0 0.0
2018-Apr-14 10:59N 37°45' W 122°21'0 0.0
2018-Apr-14 10:29N 37°45' W 122°21'0 0.0
2018-Apr-14 09:59N 37°45' W 122°21'0 0.0
2018-Apr-14 09:29N 37°45' W 122°21'0 0.1
2018-Apr-14 08:59N 37°45' W 122°21'0 0.0
2018-Apr-14 08:29N 37°45' W 122°21'0 0.2
2018-Apr-14 07:59N 37°45' W 122°20'0 0.4
2018-Apr-14 07:29N 37°45' W 122°20'0 0.1
2018-Apr-14 06:59N 37°45' W 122°20'0 0.0
2018-Apr-14 06:29N 37°45' W 122°20'0 0.1
2018-Apr-14 05:59N 37°45' W 122°21'0 0.0
2018-Apr-14 05:29N 37°45' W 122°21'0 0.1
2018-Apr-14 04:59N 37°45' W 122°20'0 0.0
2018-Apr-14 04:29N 37°45' W 122°20'0 0.1
2018-Apr-14 03:59N 37°45' W 122°21'0 0.1
2018-Apr-14 03:29N 37°45' W 122°21'0 0.1
2018-Apr-14 02:59N 37°45' W 122°20'0 0.0
2018-Apr-14 02:29N 37°45' W 122°20'0 0.0
2018-Apr-14 01:59N 37°45' W 122°20'0 0.0
2018-Apr-14 01:29N 37°45' W 122°20'0 0.1
2018-Apr-14 00:59N 37°45' W 122°20'0 0.3
2018-Apr-14 00:29N 37°45' W 122°20'0 0.1
2018-Apr-13 23:59N 37°45' W 122°21'0 0.1
2018-Apr-13 23:29N 37°45' W 122°21'0 0.1
2018-Apr-13 22:59N 37°45' W 122°21'0 0.0
2018-Apr-13 22:29N 37°45' W 122°21'0 0.0
2018-Apr-13 21:59N 37°45' W 122°21'0 0.1
2018-Apr-13 21:29N 37°45' W 122°21'0 0.0
2018-Apr-13 20:59N 37°45' W 122°21'0 0.0
2018-Apr-13 20:29N 37°45' W 122°21'0 0.0
2018-Apr-13 19:59N 37°45' W 122°21'0 0.4
2018-Apr-13 19:29N 37°45' W 122°21'0 0.3
2018-Apr-13 18:59N 37°45' W 122°21'0 0.0
2018-Apr-13 18:29N 37°45' W 122°21'0 0.1
2018-Apr-13 17:59N 37°45' W 122°20'0 0.1
2018-Apr-13 17:29N 37°45' W 122°21'0 0.0
2018-Apr-13 16:59N 37°45' W 122°21'0 0.1
2018-Apr-13 16:29N 37°45' W 122°20'0 0.1
2018-Apr-13 15:59N 37°45' W 122°21'0 0.1
2018-Apr-13 15:29N 37°45' W 122°20'0 0.0
2018-Apr-13 14:59N 37°45' W 122°20'0 0.0
2018-Apr-13 14:29N 37°45' W 122°20'0 0.0
2018-Apr-13 13:59N 37°45' W 122°20'0 0.0
2018-Apr-13 13:29N 37°45' W 122°20'0 0.0
2018-Apr-13 12:59N 37°45' W 122°20'0 0.3
2018-Apr-13 12:29N 37°45' W 122°21'0 0.3
2018-Apr-13 11:59N 37°45' W 122°21'0 0.1
2018-Apr-13 11:29N 37°45' W 122°21'0 0.0
2018-Apr-13 10:59N 37°45' W 122°21'0 0.0
2018-Apr-13 10:29N 37°45' W 122°21'0 0.0
2018-Apr-13 09:59N 37°45' W 122°21'0 0.0
2018-Apr-13 09:29N 37°45' W 122°21'0 0.0
2018-Apr-13 08:59N 37°45' W 122°21'0 0.1
2018-Apr-13 08:29N 37°45' W 122°21'0 0.3
2018-Apr-13 07:59N 37°45' W 122°21'0 0.3
2018-Apr-13 07:29N 37°45' W 122°21'0 0.2
2018-Apr-13 06:59N 37°45' W 122°21'0 0.0
2018-Apr-13 06:29N 37°45' W 122°21'0 0.0
2018-Apr-13 05:59N 37°45' W 122°21'0 0.0
2018-Apr-13 05:29N 37°45' W 122°21'0 0.2
2018-Apr-13 05:00N 37°45' W 122°21'2 4.5
2018-Apr-13 04:31N 37°47' W 122°22'5 9.0
2018-Apr-13 04:00N 37°49' W 122°27'611.4
2018-Apr-13 03:30N 37°47' W 122°34'612.4
2018-Apr-13 03:00N 37°44' W 122°41'5 9.4
2018-Apr-13 02:30N 37°41' W 122°46'5 9.1
2018-Apr-13 02:00N 37°39' W 122°50'510.8
2018-Apr-13 01:30N 37°36' W 122°56'612.2
2018-Apr-13 01:00N 37°32' W 123°02'612.3
2018-Apr-13 00:30N 37°26' W 123°04'612.2
2018-Apr-13 00:00N 37°20' W 123°06'711.2
2018-Apr-12 23:25N 37°14' W 123°07'16910.5
2018-Apr-12 07:16N 34°35' W 121°56'411.6
2018-Apr-12 06:56N 34°31' W 121°54'511.7
2018-Apr-12 06:29N 34°26' W 121°52'612.0
2018-Apr-12 05:58N 34°20' W 121°50'612.3
2018-Apr-12 05:30N 34°15' W 121°48'612.1
2018-Apr-12 05:00N 34°09' W 121°46'612.3
2018-Apr-12 04:30N 34°03' W 121°43'612.3
2018-Apr-12 04:00N 33°57' W 121°41'611.8
2018-Apr-12 03:30N 33°52' W 121°38'612.0
2018-Apr-12 02:58N 33°47' W 121°32'611.9
2018-Apr-12 02:30N 33°43' W 121°28'611.6
2018-Apr-12 02:00N 33°39' W 121°23'611.1
2018-Apr-12 01:30N 33°35' W 121°19'510.7
2018-Apr-12 01:00N 33°31' W 121°14'610.8
2018-Apr-12 00:29N 33°27' W 121°10'510.7
2018-Apr-12 00:00N 33°23' W 121°06'610.7
2018-Apr-11 23:29N 33°19' W 121°02'510.6
2018-Apr-11 23:00N 33°15' W 120°58'510.9
2018-Apr-11 22:30N 33°11' W 120°54'510.8
2018-Apr-11 22:00N 33°06' W 120°49'510.9
2018-Apr-11 21:30N 33°02' W 120°45'611.1
2018-Apr-11 21:00N 32°58' W 120°40'611.2
2018-Apr-11 20:30N 32°54' W 120°36'611.1
2018-Apr-11 20:00N 32°50' W 120°32'511.0
2018-Apr-11 19:30N 32°46' W 120°27'510.9
2018-Apr-11 19:00N 32°42' W 120°23'611.2
2018-Apr-11 18:30N 32°38' W 120°19'1711.4
2018-Apr-11 17:01N 32°26' W 120°05'010.9
2018-Apr-11 17:00N 32°25' W 120°04'2812.5
2018-Apr-11 14:47N 32°13' W 119°35'512.6
2018-Apr-11 14:23N 32°10' W 119°30'612.4
2018-Apr-11 13:55N 32°07' W 119°24'911.9
2018-Apr-11 13:12N 32°03' W 119°15'511.9
2018-Apr-11 12:48N 32°01' W 119°10'411.8
2018-Apr-11 12:26N 31°59' W 119°06'1211.9
2018-Apr-11 11:28N 31°53' W 118°54'1712.1
2018-Apr-11 10:03N 31°45' W 118°36'212.4
2018-Apr-11 09:56N 31°44' W 118°35'512.2
2018-Apr-11 09:30N 31°42' W 118°30'612.2
2018-Apr-11 09:00N 31°39' W 118°23'912.3
2018-Apr-11 08:17N 31°35' W 118°14'512.7
2018-Apr-11 07:53N 31°32' W 118°09'410.4
2018-Apr-11 07:30N 31°30' W 118°05'1 2.1
2018-Apr-11 06:58N 31°31' W 118°05'1 2.2
2018-Apr-11 06:29N 31°32' W 118°06'2 3.8
2018-Apr-11 06:00N 31°32' W 118°08'2 3.2
2018-Apr-11 05:25N 31°33' W 118°10'1 2.3
2018-Apr-11 05:00N 31°33' W 118°11'1 2.6
2018-Apr-11 04:28N 31°34' W 118°13'1 2.8
2018-Apr-11 04:00N 31°34' W 118°14'1 2.8
2018-Apr-11 03:30N 31°35' W 118°16'1 2.8
2018-Apr-11 03:00N 31°35' W 118°17'1 2.7
2018-Apr-11 02:30N 31°36' W 118°19'1 2.6
2018-Apr-11 02:00N 31°36' W 118°20'1 2.4
2018-Apr-11 01:27N 31°37' W 118°22'1 2.2
2018-Apr-11 01:00N 31°37' W 118°23'1 2.3
2018-Apr-11 00:30N 31°38' W 118°24'1 2.3
2018-Apr-11 00:00N 31°38' W 118°25'1 2.2
2018-Apr-10 23:29N 31°39' W 118°26'1 2.3
2018-Apr-10 23:00N 31°40' W 118°27'1 2.2
2018-Apr-10 22:30N 31°40' W 118°28'1 2.1
2018-Apr-10 22:00N 31°41' W 118°29'1 1.7
2018-Apr-10 21:30N 31°42' W 118°30'1 1.4
2018-Apr-10 21:00N 31°42' W 118°31'1 1.6
2018-Apr-10 20:30N 31°42' W 118°31'1 1.5
2018-Apr-10 20:00N 31°43' W 118°32'1 1.6
2018-Apr-10 19:30N 31°44' W 118°33'1 1.8
2018-Apr-10 19:00N 31°44' W 118°33'1 1.6
2018-Apr-10 18:30N 31°45' W 118°34'1 1.7
2018-Apr-10 18:00N 31°45' W 118°35'1 1.9
2018-Apr-10 17:28N 31°46' W 118°36'1 2.1
2018-Apr-10 17:00N 31°47' W 118°36'1 2.3
2018-Apr-10 16:29N 31°47' W 118°38'2 3.8
2018-Apr-10 16:00N 31°48' W 118°39'3 5.4
2018-Apr-10 15:30N 31°50' W 118°42'3 5.5
2018-Apr-10 15:00N 31°51' W 118°45'3 6.1
2018-Apr-10 14:30N 31°53' W 118°48'3 6.1
2018-Apr-10 14:00N 31°54' W 118°51'2 4.5
2018-Apr-10 13:30N 31°54' W 118°54'1 1.9
2018-Apr-10 13:00N 31°55' W 118°54'1 2.2
2018-Apr-10 12:30N 31°56' W 118°55'2 4.0
2018-Apr-10 12:00N 31°58' W 118°56'1 1.8
2018-Apr-10 11:19N 31°58' W 118°57'1 1.9
2018-Apr-10 11:00N 31°58' W 118°58'2 3.9
2018-Apr-10 10:30N 31°57' W 118°59'12 6.2
2018-Apr-10 08:34N 31°45' W 118°54'0 2.5
2018-Apr-10 08:30N 31°45' W 118°54'2 1.8
2018-Apr-10 07:07N 31°48' W 118°55'0 1.7
2018-Apr-10 06:53N 31°48' W 118°55'1 1.7
2018-Apr-10 06:30N 31°49' W 118°55'1 1.5
2018-Apr-10 05:58N 31°49' W 118°56'1 1.6
2018-Apr-10 05:30N 31°50' W 118°56'1 1.7
2018-Apr-10 05:00N 31°51' W 118°57'1 1.7
2018-Apr-10 04:28N 31°52' W 118°57'1 1.7
2018-Apr-10 04:00N 31°52' W 118°57'1 1.8
2018-Apr-10 03:29N 31°53' W 118°58'1 1.7
2018-Apr-10 02:59N 31°54' W 118°58'1 1.7
2018-Apr-10 02:30N 31°55' W 118°58'1 1.7
2018-Apr-10 01:58N 31°56' W 118°59'1 1.6
2018-Apr-10 01:30N 31°56' W 118°59'1 1.6
2018-Apr-10 00:51N 31°57' W 118°60'1 1.5
2018-Apr-10 00:30N 31°58' W 119°00'1 1.5
2018-Apr-09 23:59N 31°58' W 119°00'1 1.6
2018-Apr-09 23:28N 31°59' W 119°01'1 2.0
2018-Apr-09 23:00N 32°00' W 119°01'4 8.1
2018-Apr-09 22:30N 32°03' W 119°05'612.3
2018-Apr-09 22:00N 32°06' W 119°11'612.2
2018-Apr-09 21:30N 32°09' W 119°17'612.2
2018-Apr-09 21:00N 32°12' W 119°23'612.3
2018-Apr-09 20:30N 32°16' W 119°29'612.2
2018-Apr-09 20:00N 32°19' W 119°35'612.1
2018-Apr-09 19:30N 32°22' W 119°42'612.1
2018-Apr-09 18:58N 32°26' W 119°48'612.0
2018-Apr-09 18:29N 32°28' W 119°54'611.6
2018-Apr-09 17:56N 32°32' W 120°00'511.7
2018-Apr-09 17:30N 32°34' W 120°06'611.8
2018-Apr-09 17:00N 32°37' W 120°11'712.1
2018-Apr-09 16:27N 32°42' W 120°17'512.2
2018-Apr-09 16:00N 32°46' W 120°22'612.0
2018-Apr-09 15:30N 32°50' W 120°27'612.1
2018-Apr-09 15:00N 32°55' W 120°31'612.1
2018-Apr-09 14:30N 32°59' W 120°37'611.8
2018-Apr-09 14:00N 33°03' W 120°41'611.8
2018-Apr-09 13:30N 33°08' W 120°46'612.0
2018-Apr-09 13:00N 33°12' W 120°51'611.9
2018-Apr-09 12:30N 33°16' W 120°56'611.9
2018-Apr-09 12:00N 33°21' W 121°01'611.7
2018-Apr-09 11:30N 33°25' W 121°06'611.6
2018-Apr-09 10:59N 33°29' W 121°11'611.8
2018-Apr-09 10:30N 33°33' W 121°15'611.9
2018-Apr-09 09:58N 33°38' W 121°21'612.0
2018-Apr-09 09:30N 33°42' W 121°26'612.2
2018-Apr-09 08:58N 33°47' W 121°31'612.2
2018-Apr-09 08:30N 33°51' W 121°35'612.1
2018-Apr-09 07:59N 33°56' W 121°40'612.3
2018-Apr-09 07:30N 34°01' W 121°43'612.4
2018-Apr-09 07:00N 34°07' W 121°45'612.4
2018-Apr-09 06:30N 34°13' W 121°48'612.1
2018-Apr-09 05:59N 34°19' W 121°50'612.1
2018-Apr-09 05:30N 34°24' W 121°53'612.2
2018-Apr-09 05:00N 34°30' W 121°55'612.1
2018-Apr-09 04:30N 34°36' W 121°58'612.2
2018-Apr-09 04:00N 34°41' W 122°00'612.1
2018-Apr-09 03:29N 34°47' W 122°02'611.8
2018-Apr-09 03:00N 34°53' W 122°04'1512.1
2018-Apr-09 01:45N 35°07' W 122°11'3512.1
2018-Apr-08 22:51N 35°40' W 122°26'  
Track history (hours):
 
Tides and Currents Weather Stations Pressure Air Temp Water Temp Dewpoint Dewpoint Depression Visibility Wind Speed Wind Dir Waves Ship Positions

Aqualoyalty

Last reported at 2018-Apr-18 19:43 UTC. Time now 2018-Apr-20 05:13 UTC.
Position N 33°06' W 120°45'.

Length 249 m; draft 8.4 m.

Type: Tanker. MMSI: 636015177.

Date/timePositionNaut miles runAvg speedWind from/ knotsBaromVisibWave heightAir tempDewpointWater temp
2018-Apr-18 19:43N 33°06' W 120°45'2413.6
2018-Apr-18 17:58N 33°23' W 121°05'613.1
2018-Apr-18 17:29N 33°28' W 121°10'713.4
2018-Apr-18 16:59N 33°32' W 121°16'713.8
2018-Apr-18 16:30N 33°36' W 121°23'611.5
2018-Apr-18 16:00N 33°41' W 121°25'713.6
2018-Apr-18 15:30N 33°46' W 121°30'713.5
2018-Apr-18 15:00N 33°51' W 121°36'713.1
2018-Apr-18 14:28N 33°57' W 121°41'613.6
2018-Apr-18 14:00N 34°03' W 121°44'713.7
2018-Apr-18 13:30N 34°09' W 121°47'913.5
2018-Apr-18 12:52N 34°17' W 121°50'813.7
2018-Apr-18 12:19N 34°25' W 121°53'513.7
2018-Apr-18 11:57N 34°29' W 121°55'10113.5
2018-Apr-18 04:26N 36°05' W 122°37'2813.9
2018-Apr-18 02:28N 36°31' W 122°48'1914.2
2018-Apr-18 01:05N 36°49' W 122°56'513.9
2018-Apr-18 00:45N 36°53' W 122°58'413.9
2018-Apr-18 00:29N 36°57' W 122°60'714.1
2018-Apr-18 00:00N 37°03' W 123°03'713.9
2018-Apr-17 23:30N 37°10' W 123°06'713.8
2018-Apr-17 22:58N 37°17' W 123°08'713.9
2018-Apr-17 22:28N 37°24' W 123°10'613.6
2018-Apr-17 22:00N 37°30' W 123°11'612.4
2018-Apr-17 21:30N 37°34' W 123°04'612.6
2018-Apr-17 21:00N 37°37' W 122°58'612.6
2018-Apr-17 20:30N 37°41' W 122°51'611.8
2018-Apr-17 20:00N 37°43' W 122°45'4 8.5
2018-Apr-17 19:30N 37°46' W 122°40'611.0
2018-Apr-17 19:00N 37°47' W 122°34'611.0
2018-Apr-17 18:30N 37°50' W 122°27'4 9.0
2018-Apr-17 18:00N 37°54' W 122°27'612.5
2018-Apr-17 17:30N 38°00' W 122°25'713.2
2018-Apr-17 17:00N 38°04' W 122°17'713.1
2018-Apr-17 16:29N 38°02' W 122°09'1 1.4
2018-Apr-17 15:55N 38°02' W 122°08'  
2018-Apr-15 05:07N 38°02' W 122°08'0 0.0
2018-Apr-15 04:55N 38°02' W 122°08'0 0.0
2018-Apr-15 04:25N 38°02' W 122°08'0 0.0
2018-Apr-15 03:55N 38°02' W 122°08'0 0.0
2018-Apr-15 03:25N 38°02' W 122°08'0 0.0
2018-Apr-15 02:43N 38°02' W 122°08'0 0.0
2018-Apr-15 02:25N 38°02' W 122°08'0 0.0
2018-Apr-14 20:37N 38°02' W 122°08'0 0.0
2018-Apr-14 20:19N 38°02' W 122°08'0 0.0
2018-Apr-14 19:55N 38°02' W 122°08'0 0.2
2018-Apr-14 19:30N 38°02' W 122°08'2 4.3
2018-Apr-14 18:58N 38°03' W 122°11'4 9.5
2018-Apr-14 18:30N 38°04' W 122°16'510.5
2018-Apr-14 18:00N 38°02' W 122°22'611.4
2018-Apr-14 17:30N 37°57' W 122°27'510.7
2018-Apr-14 17:00N 37°52' W 122°25'5 9.2
2018-Apr-14 16:30N 37°48' W 122°23'4 6.7
2018-Apr-14 15:59N 37°45' W 122°21'0 0.1
2018-Apr-14 15:29N 37°45' W 122°21'0 0.0
2018-Apr-14 14:59N 37°45' W 122°21'0 0.1
2018-Apr-14 14:29N 37°45' W 122°20'0 0.0
2018-Apr-14 13:59N 37°45' W 122°20'0 0.4
2018-Apr-14 13:29N 37°45' W 122°21'0 0.1
2018-Apr-14 12:59N 37°45' W 122°21'0 0.1
2018-Apr-14 12:29N 37°45' W 122°21'0 0.0
2018-Apr-14 11:59N 37°45' W 122°21'0 0.0
2018-Apr-14 11:29N 37°45' W 122°21'0 0.0
2018-Apr-14 10:59N 37°45' W 122°21'0 0.0
2018-Apr-14 10:29N 37°45' W 122°21'0 0.0
2018-Apr-14 09:59N 37°45' W 122°21'0 0.0
2018-Apr-14 09:29N 37°45' W 122°21'0 0.1
2018-Apr-14 08:59N 37°45' W 122°21'0 0.0
2018-Apr-14 08:29N 37°45' W 122°21'0 0.2
2018-Apr-14 07:59N 37°45' W 122°20'0 0.4
2018-Apr-14 07:29N 37°45' W 122°20'0 0.1
2018-Apr-14 06:59N 37°45' W 122°20'0 0.0
2018-Apr-14 06:29N 37°45' W 122°20'0 0.1
2018-Apr-14 05:59N 37°45' W 122°21'0 0.0
2018-Apr-14 05:29N 37°45' W 122°21'0 0.1
2018-Apr-14 04:59N 37°45' W 122°20'0 0.0
2018-Apr-14 04:29N 37°45' W 122°20'0 0.1
2018-Apr-14 03:59N 37°45' W 122°21'0 0.1
2018-Apr-14 03:29N 37°45' W 122°21'0 0.1
2018-Apr-14 02:59N 37°45' W 122°20'0 0.0
2018-Apr-14 02:29N 37°45' W 122°20'0 0.0
2018-Apr-14 01:59N 37°45' W 122°20'0 0.0
2018-Apr-14 01:29N 37°45' W 122°20'0 0.1
2018-Apr-14 00:59N 37°45' W 122°20'0 0.3
2018-Apr-14 00:29N 37°45' W 122°20'0 0.1
2018-Apr-13 23:59N 37°45' W 122°21'0 0.1
2018-Apr-13 23:29N 37°45' W 122°21'0 0.1
2018-Apr-13 22:59N 37°45' W 122°21'0 0.0
2018-Apr-13 22:29N 37°45' W 122°21'0 0.0
2018-Apr-13 21:59N 37°45' W 122°21'0 0.1
2018-Apr-13 21:29N 37°45' W 122°21'0 0.0
2018-Apr-13 20:59N 37°45' W 122°21'0 0.0
2018-Apr-13 20:29N 37°45' W 122°21'0 0.0
2018-Apr-13 19:59N 37°45' W 122°21'0 0.4
2018-Apr-13 19:29N 37°45' W 122°21'0 0.3
2018-Apr-13 18:59N 37°45' W 122°21'0 0.0
2018-Apr-13 18:29N 37°45' W 122°21'0 0.1
2018-Apr-13 17:59N 37°45' W 122°20'0 0.1
2018-Apr-13 17:29N 37°45' W 122°21'0 0.0
2018-Apr-13 16:59N 37°45' W 122°21'0 0.1
2018-Apr-13 16:29N 37°45' W 122°20'0 0.1
2018-Apr-13 15:59N 37°45' W 122°21'0 0.1
2018-Apr-13 15:29N 37°45' W 122°20'0 0.0
2018-Apr-13 14:59N 37°45' W 122°20'0 0.0
2018-Apr-13 14:29N 37°45' W 122°20'0 0.0
2018-Apr-13 13:59N 37°45' W 122°20'0 0.0
2018-Apr-13 13:29N 37°45' W 122°20'0 0.0
2018-Apr-13 12:59N 37°45' W 122°20'0 0.3
2018-Apr-13 12:29N 37°45' W 122°21'0 0.3
2018-Apr-13 11:59N 37°45' W 122°21'0 0.1
2018-Apr-13 11:29N 37°45' W 122°21'0 0.0
2018-Apr-13 10:59N 37°45' W 122°21'0 0.0
2018-Apr-13 10:29N 37°45' W 122°21'0 0.0
2018-Apr-13 09:59N 37°45' W 122°21'0 0.0
2018-Apr-13 09:29N 37°45' W 122°21'0 0.0
2018-Apr-13 08:59N 37°45' W 122°21'0 0.1
2018-Apr-13 08:29N 37°45' W 122°21'0 0.3
2018-Apr-13 07:59N 37°45' W 122°21'0 0.3
2018-Apr-13 07:29N 37°45' W 122°21'0 0.2
2018-Apr-13 06:59N 37°45' W 122°21'0 0.0
2018-Apr-13 06:29N 37°45' W 122°21'0 0.0
2018-Apr-13 05:59N 37°45' W 122°21'0 0.0
2018-Apr-13 05:29N 37°45' W 122°21'0 0.2
2018-Apr-13 05:00N 37°45' W 122°21'2 4.5
2018-Apr-13 04:31N 37°47' W 122°22'5 9.0
2018-Apr-13 04:00N 37°49' W 122°27'611.4
2018-Apr-13 03:30N 37°47' W 122°34'612.4
2018-Apr-13 03:00N 37°44' W 122°41'5 9.4
2018-Apr-13 02:30N 37°41' W 122°46'5 9.1
2018-Apr-13 02:00N 37°39' W 122°50'510.8
2018-Apr-13 01:30N 37°36' W 122°56'612.2
2018-Apr-13 01:00N 37°32' W 123°02'612.3
2018-Apr-13 00:30N 37°26' W 123°04'612.2
2018-Apr-13 00:00N 37°20' W 123°06'711.2
2018-Apr-12 23:25N 37°14' W 123°07'16910.5
2018-Apr-12 07:16N 34°35' W 121°56'411.6
2018-Apr-12 06:56N 34°31' W 121°54'511.7
2018-Apr-12 06:29N 34°26' W 121°52'612.0
2018-Apr-12 05:58N 34°20' W 121°50'612.3
2018-Apr-12 05:30N 34°15' W 121°48'612.1
2018-Apr-12 05:00N 34°09' W 121°46'612.3
2018-Apr-12 04:30N 34°03' W 121°43'612.3
2018-Apr-12 04:00N 33°57' W 121°41'611.8
2018-Apr-12 03:30N 33°52' W 121°38'612.0
2018-Apr-12 02:58N 33°47' W 121°32'611.9
2018-Apr-12 02:30N 33°43' W 121°28'611.6
2018-Apr-12 02:00N 33°39' W 121°23'611.1
2018-Apr-12 01:30N 33°35' W 121°19'510.7
2018-Apr-12 01:00N 33°31' W 121°14'610.8
2018-Apr-12 00:29N 33°27' W 121°10'510.7
2018-Apr-12 00:00N 33°23' W 121°06'610.7
2018-Apr-11 23:29N 33°19' W 121°02'510.6
2018-Apr-11 23:00N 33°15' W 120°58'510.9
2018-Apr-11 22:30N 33°11' W 120°54'510.8
2018-Apr-11 22:00N 33°06' W 120°49'510.9
2018-Apr-11 21:30N 33°02' W 120°45'611.1
2018-Apr-11 21:00N 32°58' W 120°40'611.2
2018-Apr-11 20:30N 32°54' W 120°36'611.1
2018-Apr-11 20:00N 32°50' W 120°32'511.0
2018-Apr-11 19:30N 32°46' W 120°27'510.9
2018-Apr-11 19:00N 32°42' W 120°23'611.2
2018-Apr-11 18:30N 32°38' W 120°19'1711.4
2018-Apr-11 17:01N 32°26' W 120°05'010.9
2018-Apr-11 17:00N 32°25' W 120°04'2812.5
2018-Apr-11 14:47N 32°13' W 119°35'512.6
2018-Apr-11 14:23N 32°10' W 119°30'612.4
2018-Apr-11 13:55N 32°07' W 119°24'911.9
2018-Apr-11 13:12N 32°03' W 119°15'511.9
2018-Apr-11 12:48N 32°01' W 119°10'411.8
2018-Apr-11 12:26N 31°59' W 119°06'1211.9
2018-Apr-11 11:28N 31°53' W 118°54'1712.1
2018-Apr-11 10:03N 31°45' W 118°36'212.4
2018-Apr-11 09:56N 31°44' W 118°35'512.2
2018-Apr-11 09:30N 31°42' W 118°30'612.2
2018-Apr-11 09:00N 31°39' W 118°23'912.3
2018-Apr-11 08:17N 31°35' W 118°14'512.7
2018-Apr-11 07:53N 31°32' W 118°09'410.4
2018-Apr-11 07:30N 31°30' W 118°05'1 2.1
2018-Apr-11 06:58N 31°31' W 118°05'1 2.2
2018-Apr-11 06:29N 31°32' W 118°06'2 3.8
2018-Apr-11 06:00N 31°32' W 118°08'2 3.2
2018-Apr-11 05:25N 31°33' W 118°10'1 2.3
2018-Apr-11 05:00N 31°33' W 118°11'1 2.6
2018-Apr-11 04:28N 31°34' W 118°13'1 2.8
2018-Apr-11 04:00N 31°34' W 118°14'1 2.8
2018-Apr-11 03:30N 31°35' W 118°16'1 2.8
2018-Apr-11 03:00N 31°35' W 118°17'1 2.7
2018-Apr-11 02:30N 31°36' W 118°19'1 2.6
2018-Apr-11 02:00N 31°36' W 118°20'1 2.4
2018-Apr-11 01:27N 31°37' W 118°22'1 2.2
2018-Apr-11 01:00N 31°37' W 118°23'1 2.3
2018-Apr-11 00:30N 31°38' W 118°24'1 2.3
2018-Apr-11 00:00N 31°38' W 118°25'1 2.2
2018-Apr-10 23:29N 31°39' W 118°26'1 2.3
2018-Apr-10 23:00N 31°40' W 118°27'1 2.2
2018-Apr-10 22:30N 31°40' W 118°28'1 2.1
2018-Apr-10 22:00N 31°41' W 118°29'1 1.7
2018-Apr-10 21:30N 31°42' W 118°30'1 1.4
2018-Apr-10 21:00N 31°42' W 118°31'1 1.6
2018-Apr-10 20:30N 31°42' W 118°31'1 1.5
2018-Apr-10 20:00N 31°43' W 118°32'1 1.6
2018-Apr-10 19:30N 31°44' W 118°33'1 1.8
2018-Apr-10 19:00N 31°44' W 118°33'1 1.6
2018-Apr-10 18:30N 31°45' W 118°34'1 1.7
2018-Apr-10 18:00N 31°45' W 118°35'1 1.9
2018-Apr-10 17:28N 31°46' W 118°36'1 2.1
2018-Apr-10 17:00N 31°47' W 118°36'1 2.3
2018-Apr-10 16:29N 31°47' W 118°38'2 3.8
2018-Apr-10 16:00N 31°48' W 118°39'3 5.4
2018-Apr-10 15:30N 31°50' W 118°42'3 5.5
2018-Apr-10 15:00N 31°51' W 118°45'3 6.1
2018-Apr-10 14:30N 31°53' W 118°48'3 6.1
2018-Apr-10 14:00N 31°54' W 118°51'2 4.5
2018-Apr-10 13:30N 31°54' W 118°54'1 1.9
2018-Apr-10 13:00N 31°55' W 118°54'1 2.2
2018-Apr-10 12:30N 31°56' W 118°55'2 4.0
2018-Apr-10 12:00N 31°58' W 118°56'1 1.8
2018-Apr-10 11:19N 31°58' W 118°57'1 1.9
2018-Apr-10 11:00N 31°58' W 118°58'2 3.9
2018-Apr-10 10:30N 31°57' W 118°59'12 6.2
2018-Apr-10 08:34N 31°45' W 118°54'0 2.5
2018-Apr-10 08:30N 31°45' W 118°54'2 1.8
2018-Apr-10 07:07N 31°48' W 118°55'0 1.7
2018-Apr-10 06:53N 31°48' W 118°55'1 1.7
2018-Apr-10 06:30N 31°49' W 118°55'1 1.5
2018-Apr-10 05:58N 31°49' W 118°56'1 1.6
2018-Apr-10 05:30N 31°50' W 118°56'1 1.7
2018-Apr-10 05:00N 31°51' W 118°57'1 1.7
2018-Apr-10 04:28N 31°52' W 118°57'1 1.7
2018-Apr-10 04:00N 31°52' W 118°57'1 1.8
2018-Apr-10 03:29N 31°53' W 118°58'1 1.7
2018-Apr-10 02:59N 31°54' W 118°58'1 1.7
2018-Apr-10 02:30N 31°55' W 118°58'1 1.7
2018-Apr-10 01:58N 31°56' W 118°59'1 1.6
2018-Apr-10 01:30N 31°56' W 118°59'1 1.6
2018-Apr-10 00:51N 31°57' W 118°60'1 1.5
2018-Apr-10 00:30N 31°58' W 119°00'1 1.5
2018-Apr-09 23:59N 31°58' W 119°00'1 1.6
2018-Apr-09 23:28N 31°59' W 119°01'1 2.0
2018-Apr-09 23:00N 32°00' W 119°01'4 8.1
2018-Apr-09 22:30N 32°03' W 119°05'612.3
2018-Apr-09 22:00N 32°06' W 119°11'612.2
2018-Apr-09 21:30N 32°09' W 119°17'612.2
2018-Apr-09 21:00N 32°12' W 119°23'612.3
2018-Apr-09 20:30N 32°16' W 119°29'612.2
2018-Apr-09 20:00N 32°19' W 119°35'612.1
2018-Apr-09 19:30N 32°22' W 119°42'612.1
2018-Apr-09 18:58N 32°26' W 119°48'612.0
2018-Apr-09 18:29N 32°28' W 119°54'611.6
2018-Apr-09 17:56N 32°32' W 120°00'511.7
2018-Apr-09 17:30N 32°34' W 120°06'611.8
2018-Apr-09 17:00N 32°37' W 120°11'712.1
2018-Apr-09 16:27N 32°42' W 120°17'512.2
2018-Apr-09 16:00N 32°46' W 120°22'612.0
2018-Apr-09 15:30N 32°50' W 120°27'612.1
2018-Apr-09 15:00N 32°55' W 120°31'612.1
2018-Apr-09 14:30N 32°59' W 120°37'611.8
2018-Apr-09 14:00N 33°03' W 120°41'611.8
2018-Apr-09 13:30N 33°08' W 120°46'612.0
2018-Apr-09 13:00N 33°12' W 120°51'611.9
2018-Apr-09 12:30N 33°16' W 120°56'611.9
2018-Apr-09 12:00N 33°21' W 121°01'611.7
2018-Apr-09 11:30N 33°25' W 121°06'611.6
2018-Apr-09 10:59N 33°29' W 121°11'611.8
2018-Apr-09 10:30N 33°33' W 121°15'611.9
2018-Apr-09 09:58N 33°38' W 121°21'612.0
2018-Apr-09 09:30N 33°42' W 121°26'612.2
2018-Apr-09 08:58N 33°47' W 121°31'612.2
2018-Apr-09 08:30N 33°51' W 121°35'612.1
2018-Apr-09 07:59N 33°56' W 121°40'612.3
2018-Apr-09 07:30N 34°01' W 121°43'612.4
2018-Apr-09 07:00N 34°07' W 121°45'612.4
2018-Apr-09 06:30N 34°13' W 121°48'612.1
2018-Apr-09 05:59N 34°19' W 121°50'612.1
2018-Apr-09 05:30N 34°24' W 121°53'612.2
2018-Apr-09 05:00N 34°30' W 121°55'612.1
2018-Apr-09 04:30N 34°36' W 121°58'612.2
2018-Apr-09 04:00N 34°41' W 122°00'612.1
2018-Apr-09 03:29N 34°47' W 122°02'611.8
2018-Apr-09 03:00N 34°53' W 122°04'1512.1
2018-Apr-09 01:45N 35°07' W 122°11'3512.1
2018-Apr-08 22:51N 35°40' W 122°26'  

Dump ship's entire track history